createdAt,value
2022-08-08T00:02:29.989Z,45.15
2022-08-08T00:07:31.589Z,45.17
2022-08-08T00:12:56.434Z,45.22
2022-08-08T00:18:05.052Z,45.51
2022-08-08T00:23:14.747Z,45.31
2022-08-08T00:28:35.693Z,45.33
2022-08-08T00:34:17.320Z,45.44
2022-08-08T00:41:08.077Z,45.48
2022-08-08T00:45:03.635Z,45.57
2022-08-08T00:50:52.367Z,45.40
2022-08-08T00:56:41.645Z,45.49
2022-08-08T01:02:01.993Z,45.63
2022-08-08T01:07:55.403Z,45.62
2022-08-08T01:13:46.109Z,45.58
2022-08-08T01:19:52.049Z,45.81
2022-08-08T01:25:26.364Z,45.57
2022-08-08T01:32:14.643Z,45.92
2022-08-08T01:37:56.338Z,46.26
2022-08-08T01:42:55.501Z,46.29
2022-08-08T01:48:16.781Z,46.49
2022-08-08T01:55:26.482Z,46.37
2022-08-08T02:00:00.779Z,46.47
2022-08-08T02:05:04.685Z,46.50
2022-08-08T02:10:45.209Z,46.55
2022-08-08T02:16:02.456Z,46.51
2022-08-08T02:21:32.435Z,46.64
2022-08-08T02:26:47.716Z,46.71
2022-08-08T02:32:07.043Z,47.00
2022-08-08T02:37:52.905Z,46.90
2022-08-08T02:44:42.690Z,47.00
2022-08-08T02:48:56.789Z,46.94
2022-08-08T02:54:18.822Z,47.23
2022-08-08T03:00:31.131Z,47.21
2022-08-08T03:06:04.053Z,46.88
2022-08-08T03:12:01.968Z,47.17
2022-08-08T03:17:12.657Z,47.14
2022-08-08T03:22:38.409Z,47.05
2022-08-08T03:27:57.071Z,46.51
2022-08-08T03:33:58.708Z,46.07
2022-08-08T03:38:56.432Z,46.27
2022-08-08T03:44:09.723Z,46.61
2022-08-08T03:49:57.388Z,46.80
2022-08-08T03:55:01.906Z,46.54
2022-08-08T04:00:18.361Z,46.81
2022-08-08T04:05:29.198Z,46.49
2022-08-08T04:10:39.400Z,46.61
2022-08-08T04:15:55.010Z,46.84
2022-08-08T04:21:10.772Z,46.85
2022-08-08T04:26:16.056Z,46.91
2022-08-08T04:31:56.933Z,46.87
2022-08-08T04:36:43.665Z,46.73
2022-08-08T04:41:49.621Z,46.80
2022-08-08T04:46:55.748Z,47.56
2022-08-08T04:52:01.503Z,47.38
2022-08-08T04:57:07.394Z,47.59
2022-08-08T05:02:13.796Z,47.52
2022-08-08T05:07:17.911Z,47.46
2022-08-08T05:12:21.442Z,47.46
2022-08-08T05:17:53.796Z,47.87
2022-08-08T05:22:56.662Z,47.67
2022-08-08T05:28:03.643Z,47.58
2022-08-08T05:33:12.546Z,47.57
2022-08-08T05:38:30.787Z,47.91
2022-08-08T05:44:03.687Z,48.56
2022-08-08T05:49:11.003Z,48.37
2022-08-08T05:54:27.102Z,48.83
2022-08-08T05:59:59.730Z,49.23
2022-08-08T06:05:34.760Z,49.49
2022-08-08T06:10:43.304Z,49.07
2022-08-08T06:15:53.633Z,49.75
2022-08-08T06:21:32.747Z,49.51
2022-08-08T06:26:53.025Z,49.17
2022-08-08T06:32:09.803Z,49.11
2022-08-08T06:37:24.400Z,48.68
2022-08-08T06:42:37.023Z,50.44
2022-08-08T06:47:52.732Z,49.74
2022-08-08T06:53:17.036Z,49.75
2022-08-08T06:58:30.375Z,49.73
2022-08-08T07:04:36.432Z,49.54
2022-08-08T07:09:15.061Z,49.82
2022-08-08T07:14:33.838Z,49.94
2022-08-08T07:19:44.450Z,49.53
2022-08-08T07:24:53.374Z,50.32
2022-08-08T07:30:05.785Z,49.19
2022-08-08T07:35:16.474Z,48.53
2022-08-08T07:40:29.848Z,48.44
2022-08-08T07:46:05.796Z,48.38
2022-08-08T07:51:02.660Z,48.73
2022-08-08T07:56:17.384Z,48.72
2022-08-08T08:02:35.397Z,49.16
2022-08-08T08:07:08.758Z,48.89
2022-08-08T08:12:35.412Z,48.93
2022-08-08T08:17:48.469Z,48.80
2022-08-08T08:22:55.006Z,49.49
2022-08-08T08:27:59.218Z,48.07
2022-08-08T08:33:06.423Z,47.73
2022-08-08T08:38:17.599Z,48.06
2022-08-08T08:43:26.729Z,47.67
2022-08-08T08:48:32.649Z,47.26
2022-08-08T08:53:58.857Z,47.37
2022-08-08T08:59:06.252Z,46.76
2022-08-08T09:04:31.351Z,46.75
2022-08-08T09:09:55.250Z,47.06
2022-08-08T09:15:06.468Z,45.13
2022-08-08T09:21:57.639Z,45.94
2022-08-08T09:25:54.509Z,46.17
2022-08-08T09:31:12.727Z,46.28
2022-08-08T09:36:23.548Z,45.40
2022-08-08T09:42:14.077Z,45.35
2022-08-08T09:47:25.923Z,44.37
2022-08-08T09:52:56.285Z,45.09
2022-08-08T09:58:06.173Z,46.13
2022-08-08T10:03:19.967Z,45.88
2022-08-08T10:08:23.003Z,45.45
2022-08-08T10:13:35.497Z,45.01
2022-08-08T10:18:40.555Z,44.87
2022-08-08T10:23:50.820Z,44.52
2022-08-08T10:29:06.158Z,44.55
2022-08-08T10:34:18.821Z,44.87
2022-08-08T10:39:31.597Z,44.29
2022-08-08T10:44:49.373Z,43.71
2022-08-08T10:50:02.257Z,43.78
2022-08-08T10:55:08.422Z,44.41
2022-08-08T11:00:14.192Z,45.74
2022-08-08T11:05:23.108Z,46.09
2022-08-08T11:10:29.335Z,46.15
2022-08-08T11:15:32.670Z,46.30
2022-08-08T11:20:37.198Z,46.39
2022-08-08T11:25:52.238Z,46.53
2022-08-08T11:30:59.778Z,46.36
2022-08-08T11:36:05.090Z,46.43
2022-08-08T11:41:11.606Z,46.89
2022-08-08T11:46:18.437Z,46.93
2022-08-08T11:51:39.235Z,46.66
2022-08-08T11:56:43.766Z,47.00
2022-08-08T12:02:30.365Z,47.03
2022-08-08T12:07:30.252Z,47.50
2022-08-08T12:12:45.926Z,47.45
2022-08-08T12:17:51.444Z,47.39
2022-08-08T12:22:57.108Z,47.66
2022-08-08T12:28:15.660Z,47.79
2022-08-08T12:33:20.565Z,47.88
2022-08-08T12:38:31.094Z,47.95
2022-08-08T12:43:49.715Z,48.01
2022-08-08T12:54:27.601Z,48.26
2022-08-08T12:59:44.690Z,48.30
2022-08-08T13:04:51.736Z,48.35
2022-08-08T13:10:04.825Z,49.03
2022-08-08T13:15:10.628Z,48.96
2022-08-08T13:20:17.306Z,49.23
2022-08-08T13:25:23.192Z,49.58
2022-08-08T13:30:28.227Z,50.03
2022-08-08T13:35:41.182Z,49.63
2022-08-08T13:40:48.907Z,49.86
2022-08-08T13:45:54.297Z,50.15
2022-08-08T13:51:25.057Z,50.26
2022-08-08T13:56:44.755Z,50.40
2022-08-08T14:02:07.260Z,50.45
2022-08-08T14:07:13.504Z,50.18
2022-08-08T14:12:19.127Z,50.50
2022-08-08T14:17:58.088Z,50.39
2022-08-08T14:22:45.847Z,50.77
2022-08-08T14:27:59.634Z,51.02
2022-08-08T14:33:12.904Z,50.71
2022-08-08T14:38:33.885Z,51.08
2022-08-08T14:44:10.470Z,50.89
2022-08-08T14:49:20.595Z,50.95
2022-08-08T14:54:45.600Z,50.93
2022-08-08T14:59:51.441Z,51.05
2022-08-08T15:05:10.471Z,50.98
2022-08-08T15:10:16.477Z,51.20
2022-08-08T15:16:03.010Z,51.16
2022-08-08T15:20:44.591Z,51.15
2022-08-08T15:25:47.357Z,51.32
2022-08-08T15:30:51.410Z,51.18
2022-08-08T15:35:54.725Z,50.95
2022-08-08T15:41:12.794Z,51.11
2022-08-08T15:46:18.271Z,51.21
2022-08-08T15:51:32.720Z,51.42
2022-08-08T15:56:36.502Z,51.31
2022-08-08T16:01:59.738Z,51.74
2022-08-08T16:07:05.124Z,52.22
2022-08-08T16:13:14.924Z,52.60
2022-08-08T16:17:57.658Z,52.95
2022-08-08T16:22:55.109Z,52.36
2022-08-08T16:27:58.561Z,52.16
2022-08-08T16:33:02.713Z,51.75
2022-08-08T16:38:09.714Z,51.62
2022-08-08T16:43:15.580Z,52.10
2022-08-08T16:48:22.626Z,52.62
2022-08-08T16:55:22.671Z,52.53
2022-08-08T16:58:49.490Z,52.63
2022-08-08T17:03:58.694Z,52.28
2022-08-08T17:09:02.935Z,52.39
2022-08-08T17:14:05.797Z,52.36
2022-08-08T17:19:22.128Z,52.37
2022-08-08T17:24:27.699Z,52.36
2022-08-08T17:29:34.138Z,52.11
2022-08-08T17:35:52.015Z,52.20
2022-08-08T17:40:12.390Z,52.11
2022-08-08T17:45:22.325Z,52.36
2022-08-08T17:50:27.520Z,52.02
2022-08-08T17:56:06.147Z,51.91
2022-08-08T18:00:54.483Z,51.59
2022-08-08T18:06:02.809Z,51.44
2022-08-08T18:11:22.880Z,51.09
2022-08-08T18:16:27.017Z,51.13
2022-08-08T18:22:01.693Z,51.17
2022-08-08T18:27:00.761Z,51.16
2022-08-08T18:32:09.946Z,51.01
2022-08-08T18:37:33.678Z,51.34
2022-08-08T18:42:37.256Z,50.91
2022-08-08T18:47:48.333Z,51.09
2022-08-08T18:52:52.539Z,50.65
2022-08-08T18:57:55.416Z,50.20
2022-08-08T19:03:06.077Z,50.01
2022-08-08T19:08:25.899Z,49.93
2022-08-08T19:13:53.098Z,49.87
2022-08-08T19:19:02.090Z,50.46
2022-08-08T19:24:12.730Z,50.43
2022-08-08T19:29:31.265Z,50.21
2022-08-08T19:34:41.348Z,50.44
2022-08-08T19:39:46.149Z,49.43
2022-08-08T19:44:53.904Z,49.08
2022-08-08T19:50:00.649Z,48.48
2022-08-08T19:55:11.493Z,48.42
2022-08-08T20:00:29.346Z,48.35
2022-08-08T20:06:15.137Z,48.16
2022-08-08T20:10:58.273Z,48.27
2022-08-08T20:16:01.361Z,46.98
2022-08-08T20:21:04.541Z,47.63
2022-08-08T20:26:09.452Z,48.13
2022-08-08T20:31:13.932Z,47.98
2022-08-08T20:36:22.274Z,48.18
2022-08-08T20:41:26.564Z,48.01
2022-08-08T20:46:31.547Z,48.01
2022-08-08T20:51:36.451Z,47.88
2022-08-08T20:57:05.706Z,47.49
2022-08-08T21:02:06.798Z,47.46
2022-08-08T21:07:16.399Z,47.14
2022-08-08T21:12:20.734Z,47.00
2022-08-08T21:17:36.741Z,47.32
2022-08-08T21:22:39.673Z,47.09
2022-08-08T21:28:09.127Z,47.08
2022-08-08T21:33:10.815Z,47.42
2022-08-08T21:38:17.069Z,47.09
2022-08-08T21:43:22.394Z,47.53
2022-08-08T21:48:30.384Z,47.68
2022-08-08T21:54:35.309Z,47.60
2022-08-08T21:59:08.839Z,47.71
2022-08-08T22:04:12.707Z,47.51
2022-08-08T22:09:15.551Z,47.78
2022-08-08T22:14:21.583Z,47.80
2022-08-08T22:19:24.401Z,47.56
2022-08-08T22:24:31.765Z,47.56
2022-08-08T22:29:58.988Z,47.58
2022-08-08T22:34:59.982Z,47.61
2022-08-08T22:40:11.913Z,47.73
2022-08-08T22:45:21.209Z,47.86
2022-08-08T22:50:28.409Z,47.90
2022-08-08T22:55:31.782Z,48.10
2022-08-08T23:00:57.988Z,48.01
2022-08-08T23:06:02.784Z,48.39
2022-08-08T23:11:06.508Z,48.41
2022-08-08T23:16:41.960Z,48.35
2022-08-08T23:21:40.393Z,48.30
2022-08-08T23:26:43.152Z,48.44
2022-08-08T23:31:57.981Z,48.72
2022-08-08T23:37:02.615Z,48.52
2022-08-08T23:42:08.253Z,48.70
2022-08-08T23:49:05.983Z,48.84
2022-08-08T23:52:35.365Z,48.81
2022-08-08T23:57:51.772Z,48.83
